Time;durP1;ratioP1;P1;durP2;ratioP2;P2;SDS_P1;SDS_P2;PMS_P1;PMS_P2;Temp;Humidity;BMP_temperature;BMP_pressure;BME280_temperature;BME280_humidity;BME280_pressure;Samples;Min_cycle;Max_cycle;Signal;HPM_P1;HPM_P2
2022/07/18 00:00:31;;;;;;;0.10;0.10;;;;;;;13.50;100.00;102463.47;10410243;28;20497;-79
2022/07/18 00:05:33;;;;;;;0.38;0.20;;;;;;;13.33;100.00;102467.91;10406479;28;20060;-79
2022/07/18 00:10:34;;;;;;;0.08;0.08;;;;;;;13.46;100.00;102451.19;10410826;28;20056;-79
2022/07/18 00:15:37;;;;;;;0.10;0.10;;;;;;;13.33;100.00;102455.88;10410800;28;20041;-79
2022/07/18 00:20:38;;;;;;;0.20;0.20;;;;;;;13.38;100.00;102452.56;10409387;28;20049;-79
2022/07/18 00:25:40;;;;;;;0.10;0.08;;;;;;;13.05;100.00;102461.63;10411677;28;20408;-80
2022/07/18 00:30:43;;;;;;;0.20;0.15;;;;;;;12.91;100.00;102466.25;10409661;28;20044;-79
2022/07/18 00:35:45;;;;;;;0.10;0.10;;;;;;;12.88;100.00;102468.72;10410114;28;20128;-79
2022/07/18 00:40:47;;;;;;;0.17;0.10;;;;;;;12.88;100.00;102471.31;10405339;28;20045;-79
2022/07/18 00:45:49;;;;;;;0.60;0.35;;;;;;;13.00;100.00;102458.84;10410421;28;20049;-79
2022/07/18 00:50:51;;;;;;;1.00;1.00;;;;;;;12.90;100.00;102454.16;10420766;28;20120;-79
2022/07/18 00:55:53;;;;;;;0.05;0.03;;;;;;;12.84;100.00;102441.84;10410460;28;20045;-79
2022/07/18 01:06:16;;;;;;;0.00;0.00;;;;;;;12.67;100.00;102438.56;10411047;28;20492;-79
2022/07/18 01:11:18;;;;;;;1.75;0.20;;;;;;;12.60;100.00;102433.03;10403243;28;20041;-79
2022/07/18 01:16:19;;;;;;;0.05;0.05;;;;;;;12.57;100.00;102433.81;10409739;28;20049;-79
2022/07/18 01:21:21;;;;;;;0.00;0.00;;;;;;;12.46;100.00;102437.66;10408538;28;20096;-79
2022/07/18 01:26:23;;;;;;;0.28;0.28;;;;;;;12.36;100.00;102441.56;10409015;28;20051;-79
2022/07/18 01:31:25;;;;;;;0.15;0.08;;;;;;;12.28;100.00;102446.38;10409293;28;20073;-79
2022/07/18 01:36:26;;;;;;;0.55;0.35;;;;;;;12.17;100.00;102437.28;10409721;28;20057;-79
2022/07/18 01:41:28;;;;;;;0.65;0.30;;;;;;;12.44;100.00;102416.03;10407171;28;20543;-79
2022/07/18 01:46:30;;;;;;;0.00;0.00;;;;;;;12.17;100.00;102419.19;10391543;28;20053;-79
2022/07/18 01:51:32;;;;;;;0.22;0.22;;;;;;;11.96;100.00;102427.69;10408708;28;20406;-79
2022/07/18 01:56:34;;;;;;;0.00;0.00;;;;;;;12.04;100.00;102416.06;10408224;28;20048;-79
2022/07/18 02:01:35;;;;;;;0.00;0.00;;;;;;;12.14;100.00;102417.34;10408858;28;20096;-79
2022/07/18 02:06:37;;;;;;;0.10;0.10;;;;;;;11.97;100.00;102421.75;10408736;28;20544;-79
2022/07/18 02:11:39;;;;;;;0.30;0.30;;;;;;;12.08;100.00;102408.44;10407137;28;20042;-79
2022/07/18 02:16:40;;;;;;;0.13;0.13;;;;;;;12.08;100.00;102405.88;10408846;28;20057;-79
2022/07/18 02:21:42;;;;;;;0.15;0.15;;;;;;;12.10;100.00;102414.56;10407027;28;20049;-79
2022/07/18 02:26:44;;;;;;;0.28;0.25;;;;;;;11.97;100.00;102398.50;10408953;28;20523;-79
2022/07/18 02:31:46;;;;;;;0.20;0.20;;;;;;;11.93;100.00;102386.25;10407911;28;20045;-79
2022/07/18 02:36:50;;;;;;;0.47;0.47;;;;;;;11.91;100.00;102383.59;10410959;28;20077;-79
2022/07/18 02:41:51;;;;;;;0.35;0.20;;;;;;;11.91;100.00;102382.72;10415104;28;20049;-79
2022/07/18 02:46:53;;;;;;;0.30;0.25;;;;;;;11.81;100.00;102391.75;10415597;28;20103;-79
2022/07/18 02:51:57;;;;;;;0.28;0.20;;;;;;;11.74;100.00;102388.00;10413542;28;20049;-79
2022/07/18 02:56:59;;;;;;;0.00;0.00;;;;;;;11.50;100.00;102400.69;10415238;28;20041;-79
2022/07/18 03:02:01;;;;;;;0.40;0.17;;;;;;;11.41;100.00;102401.16;10414624;28;20049;-79
2022/07/18 03:07:03;;;;;;;0.15;0.13;;;;;;;11.32;100.00;102405.88;10413816;28;20451;-79
2022/07/18 03:12:04;;;;;;;0.30;0.30;;;;;;;11.31;100.00;102409.28;10414334;28;20424;-79
2022/07/18 03:17:06;;;;;;;0.68;0.30;;;;;;;11.28;100.00;102393.66;10413030;28;20052;-79
2022/07/18 03:22:08;;;;;;;0.30;0.20;;;;;;;11.34;100.00;102390.47;10414226;28;20041;-79
2022/07/18 03:27:09;;;;;;;0.13;0.13;;;;;;;11.47;100.00;102381.59;10412699;28;20050;-79
2022/07/18 03:32:11;;;;;;;0.77;0.30;;;;;;;11.42;100.00;102382.28;10412324;28;20045;-79
2022/07/18 03:37:13;;;;;;;0.30;0.22;;;;;;;11.23;100.00;102387.38;10400544;28;20056;-79
2022/07/18 03:42:14;;;;;;;0.20;0.20;;;;;;;11.28;100.00;102383.34;10410951;28;20045;-79
2022/07/18 03:47:16;;;;;;;0.20;0.20;;;;;;;11.18;100.00;102391.44;10410909;28;20132;-79
2022/07/18 03:52:18;;;;;;;0.38;0.32;;;;;;;11.37;100.00;102378.59;10412538;28;20473;-80
2022/07/18 03:57:21;;;;;;;0.10;0.10;;;;;;;11.20;100.00;102384.69;10413191;28;20045;-79
2022/07/18 04:02:22;;;;;;;0.22;0.10;;;;;;;11.34;100.00;102386.22;10411014;28;20073;-79
2022/07/18 04:07:24;;;;;;;1.40;0.40;;;;;;;11.34;100.00;102388.78;10411350;28;20045;-79
2022/07/18 04:12:25;;;;;;;0.20;0.20;;;;;;;11.47;100.00;102394.50;10410670;28;20041;-79
2022/07/18 04:17:27;;;;;;;0.05;0.05;;;;;;;11.46;100.00;102392.72;10411479;28;20130;-79
2022/07/18 04:22:29;;;;;;;1.48;0.70;;;;;;;11.40;100.00;102383.91;10410527;28;20074;-79
2022/07/18 04:27:30;;;;;;;0.15;0.15;;;;;;;11.66;100.00;102371.28;10393944;28;20060;-79
2022/07/18 04:32:32;;;;;;;1.05;0.57;;;;;;;11.72;100.00;102366.44;10411614;28;20060;-79
2022/07/18 04:37:34;;;;;;;0.15;0.15;;;;;;;11.73;100.00;102367.28;10410924;28;20049;-79
2022/07/18 04:42:36;;;;;;;0.10;0.10;;;;;;;11.94;100.00;102356.13;10408858;28;20091;-78
2022/07/18 04:47:38;;;;;;;2.10;0.40;;;;;;;12.27;100.00;102355.88;10408950;28;20053;-79
2022/07/18 04:52:41;;;;;;;0.82;0.55;;;;;;;12.35;100.00;102347.59;10410734;28;20551;-78
2022/07/18 04:57:44;;;;;;;2.15;0.75;;;;;;;12.94;100.00;102329.28;10409749;28;20054;-78
2022/07/18 05:02:48;;;;;;;0.88;0.40;;;;;;;13.28;100.00;102322.81;10409151;28;20091;-78
2022/07/18 05:07:50;;;;;;;0.10;0.10;;;;;;;13.63;100.00;102325.84;10410262;28;20571;-78
2022/07/18 05:12:53;;;;;;;2.47;0.65;;;;;;;13.91;100.00;102319.03;10408765;28;20052;-78
2022/07/18 05:17:55;;;;;;;0.95;0.85;;;;;;;14.08;100.00;102308.38;10408258;28;20144;-78
2022/07/18 05:22:57;;;;;;;2.85;0.95;;;;;;;14.59;100.00;102297.97;10408867;28;20045;-77
2022/07/18 05:27:58;;;;;;;0.32;0.32;;;;;;;14.87;100.00;102292.78;10410482;28;20045;-78
2022/07/18 05:33:00;;;;;;;0.47;0.47;;;;;;;15.35;100.00;102291.56;10406705;28;20049;-77
2022/07/18 05:38:02;;;;;;;0.43;0.35;;;;;;;15.44;100.00;102297.03;10406087;28;20090;-78
2022/07/18 05:43:04;;;;;;;0.17;0.17;;;;;;;15.85;100.00;102312.91;10409493;28;20096;-78
2022/07/18 05:48:06;;;;;;;0.55;0.40;;;;;;;16.27;100.00;102307.91;10409635;28;20056;-78
2022/07/18 05:53:07;;;;;;;0.47;0.30;;;;;;;16.67;100.00;102308.84;10409512;28;20103;-78
2022/07/18 05:58:09;;;;;;;0.13;0.10;;;;;;;17.00;97.28;102302.66;10409101;28;20405;-78
2022/07/18 06:03:11;;;;;;;0.50;0.40;;;;;;;17.10;96.99;102304.59;10407867;28;20049;-78
2022/07/18 06:08:13;;;;;;;1.08;0.98;;;;;;;17.27;97.97;102306.69;10408672;28;20046;-78
2022/07/18 06:13:14;;;;;;;0.08;0.08;;;;;;;17.51;95.35;102300.22;10415984;28;20041;-79
2022/07/18 06:18:16;;;;;;;1.23;0.60;;;;;;;17.72;92.48;102295.41;10415536;28;20049;-79
2022/07/18 06:23:18;;;;;;;1.30;0.43;;;;;;;17.81;96.25;102278.19;10415636;28;20044;-79
2022/07/18 06:28:20;;;;;;;0.90;0.65;;;;;;;17.85;95.00;102266.94;10416172;28;20056;-78
2022/07/18 06:33:21;;;;;;;0.85;0.50;;;;;;;17.98;91.16;102261.16;10415131;28;20381;-79
2022/07/18 06:38:23;;;;;;;0.50;0.30;;;;;;;18.37;90.77;102252.19;10415895;28;20038;-78
2022/07/18 06:43:25;;;;;;;0.30;0.30;;;;;;;18.66;88.79;102246.50;10414778;28;20060;-79
2022/07/18 06:48:32;;;;;;;0.32;0.32;;;;;;;19.10;80.54;102241.88;10400305;28;20046;-78
2022/07/18 06:53:34;;;;;;;0.20;0.20;;;;;;;19.17;81.28;102238.47;10415802;28;20053;-79
2022/07/18 06:58:36;;;;;;;0.03;0.03;;;;;;;19.79;79.48;102249.53;10415222;28;20049;-78
2022/07/18 07:03:37;;;;;;;0.57;0.57;;;;;;;20.58;73.98;102237.94;10411395;28;20056;-79
2022/07/18 07:08:39;;;;;;;0.85;0.50;;;;;;;21.50;76.95;102239.16;10400835;28;20048;-79
2022/07/18 07:13:41;;;;;;;0.20;0.20;;;;;;;21.99;73.71;102238.34;10398596;28;20503;-79
2022/07/18 07:18:42;;;;;;;2.83;0.57;;;;;;;22.01;66.85;102243.56;10401149;28;20120;-79
2022/07/18 07:23:44;;;;;;;0.10;0.10;;;;;;;22.32;64.33;102238.28;10390568;28;20058;-80
2022/07/18 07:28:46;;;;;;;0.25;0.20;;;;;;;;;;10404001;28;20587;-79
2022/07/18 07:33:47;;;;;;;1.33;0.73;;;;;;;22.95;57.89;102240.75;10398400;28;20133;-80
2022/07/18 07:38:49;;;;;;;0.35;0.22;;;;;;;23.44;58.58;102230.88;10394235;28;20485;-79
2022/07/18 07:43:51;;;;;;;0.40;0.20;;;;;;;23.76;61.19;102238.50;10406391;28;20037;-79
2022/07/18 07:48:52;;;;;;;0.30;0.30;;;;;;;23.96;58.51;102226.09;10408244;28;20061;-79
2022/07/18 07:53:54;;;;;;;0.17;0.17;;;;;;;24.67;59.94;102223.63;10411383;28;20041;-80
2022/07/18 07:58:55;;;;;;;0.00;0.00;;;;;;;25.05;57.52;102221.34;10408339;28;20051;-80
2022/07/18 08:03:58;;;;;;;0.45;0.10;;;;;;;25.16;55.29;102215.94;10396826;28;20112;-80
2022/07/18 08:09:00;;;;;;;0.15;0.15;;;;;;;26.06;49.29;102219.78;10409418;28;20038;-80
2022/07/18 08:14:01;;;;;;;0.30;0.20;;;;;;;26.44;49.29;102212.94;10409103;28;20049;-80
2022/07/18 08:19:04;;;;;;;1.98;0.60;;;;;;;26.63;48.15;102210.78;10408128;28;20484;-80
2022/07/18 08:24:05;;;;;;;0.43;0.22;;;;;;;26.23;43.11;102225.66;10410447;28;20400;-80
2022/07/18 08:29:07;;;;;;;0.00;0.00;;;;;;;27.88;51.39;102222.91;10407866;28;20049;-80
2022/07/18 08:34:09;;;;;;;0.00;0.00;;;;;;;28.40;41.09;102220.66;10409151;28;20061;-80
2022/07/18 08:39:11;;;;;;;0.20;0.20;;;;;;;28.30;45.38;102213.88;10400413;28;20488;-80
2022/07/18 08:44:13;;;;;;;0.00;0.00;;;;;;;28.22;46.47;102205.28;10404744;28;20072;-80
2022/07/18 08:49:15;;;;;;;0.98;0.30;;;;;;;28.03;46.22;102205.75;10405583;28;20546;-79
2022/07/18 08:54:17;;;;;;;0.05;0.03;;;;;;;29.17;41.34;102190.09;10406774;28;20430;-80
2022/07/18 08:59:23;;;;;;;1.00;0.52;;;;;;;28.41;39.60;102179.13;10409291;28;20095;-80
2022/07/18 09:04:42;;;;;;;0.00;0.00;;;;;;;29.12;45.11;102187.56;10406293;28;20083;-80
2022/07/18 09:09:53;;;;;;;0.20;0.20;;;;;;;28.54;41.38;102183.13;10405202;28;20037;-80
2022/07/18 09:14:55;;;;;;;0.35;0.20;;;;;;;29.16;36.85;102189.22;10411798;28;20368;-80
2022/07/18 09:20:03;;;;;;;1.85;0.15;;;;;;;30.14;37.11;102191.28;10406940;28;20041;-80
2022/07/18 09:25:13;;;;;;;1.00;0.80;;;;;;;30.12;33.75;102201.97;10409211;28;20045;-80
2022/07/18 09:30:15;;;;;;;0.00;0.00;;;;;;;29.76;36.63;102199.66;10407534;28;20037;-80
2022/07/18 09:35:27;;;;;;;0.20;0.20;;;;;;;29.47;36.69;102201.53;10404265;28;20500;-80
2022/07/18 09:40:32;;;;;;;0.03;0.03;;;;;;;29.80;38.72;102195.97;10382107;28;20136;-81
2022/07/18 09:45:37;;;;;;;0.55;0.22;;;;;;;29.28;36.57;102203.91;10410395;28;20072;-81
2022/07/18 09:50:43;;;;;;;0.10;0.10;;;;;;;29.96;36.67;102192.81;10412826;28;20041;-80
2022/07/18 09:55:47;;;;;;;0.20;0.20;;;;;;;30.32;33.74;102193.25;10410512;28;20049;-80
2022/07/18 10:00:49;;;;;;;1.48;0.40;;;;;;;29.91;32.26;102187.66;10403638;28;20622;-80
2022/07/18 10:05:54;;;;;;;0.10;0.10;;;;;;;29.95;36.13;102193.72;10405262;28;20074;-80
2022/07/18 10:10:59;;;;;;;0.88;0.25;;;;;;;30.00;36.04;102181.16;10407901;28;20257;-80
2022/07/18 10:16:02;;;;;;;0.10;0.10;;;;;;;30.04;31.33;102188.97;10411560;28;20384;-81
2022/07/18 10:21:08;;;;;;;0.38;0.20;;;;;;;30.45;35.43;102176.84;10409854;28;20037;-80
2022/07/18 10:26:13;;;;;;;0.00;0.00;;;;;;;29.47;32.10;102182.06;10413139;28;20041;-81
2022/07/18 10:31:16;;;;;;;0.10;0.10;;;;;;;30.09;33.42;102185.28;10412995;28;20055;-80
2022/07/18 10:36:23;;;;;;;0.52;0.30;;;;;;;29.43;31.30;102176.00;10410019;28;20041;-81
2022/07/18 10:41:25;;;;;;;0.10;0.10;;;;;;;30.57;30.11;102176.38;10449576;28;20041;-80
2022/07/18 10:47:02;;;;;;;0.10;0.10;;;;;;;30.34;29.88;102169.28;10448144;28;20040;-80
2022/07/18 10:52:05;;;;;;;0.10;0.10;;;;;;;30.67;32.46;102169.81;10442867;28;20038;-81
2022/07/18 10:57:08;;;;;;;0.00;0.00;;;;;;;29.74;30.67;102175.81;10424853;28;20041;-81
2022/07/18 11:02:11;;;;;;;0.13;0.10;;;;;;;29.76;30.07;102163.34;10425629;28;20045;-80
2022/07/18 11:07:14;;;;;;;0.00;0.00;;;;;;;30.47;28.92;102159.03;10448503;28;20037;-81
2022/07/18 11:12:20;;;;;;;0.10;0.10;;;;;;;30.46;30.66;102159.97;10468843;28;20041;-80
2022/07/18 11:17:58;;;;;;;0.77;0.10;;;;;;;31.05;28.21;102155.91;10458284;28;20641;-80
2022/07/18 11:23:13;;;;;;;0.30;0.20;;;;;;;30.87;28.87;102152.16;10465611;28;20078;-80
2022/07/18 11:28:18;;;;;;;0.22;0.03;;;;;;;29.72;31.43;102140.47;10479336;28;20123;-79
2022/07/18 11:33:26;;;;;;;0.17;0.10;;;;;;;30.76;30.35;102133.97;10440425;28;20087;-80
2022/07/18 11:38:28;;;;;;;;;;;;;;;31.07;31.00;102132.72;10484140;28;20647;-80
2022/07/18 11:43:30;;;;;;;0.90;0.65;;;;;;;31.19;29.12;102126.06;10447550;28;19921;-80
2022/07/18 11:48:37;;;;;;;0.63;0.45;;;;;;;31.10;29.44;102126.44;10423742;28;20052;-79
2022/07/18 11:53:49;;;;;;;0.10;0.10;;;;;;;31.98;27.98;102111.16;10417143;28;20523;-79
2022/07/18 11:58:54;;;;;;;0.30;0.30;;;;;;;31.10;25.88;102116.69;10426383;28;20044;-80
2022/07/18 12:03:58;;;;;;;0.82;0.47;;;;;;;31.70;26.49;102107.06;10400057;28;20065;-81
2022/07/18 12:09:01;;;;;;;0.10;0.10;;;;;;;32.23;26.81;102098.44;10438173;28;20400;-80
2022/07/18 12:14:14;;;;;;;0.00;0.00;;;;;;;31.31;27.48;102098.91;10443740;28;20060;-81
2022/07/18 12:19:24;;;;;;;0.43;0.25;;;;;;;31.35;27.12;102096.13;10451225;28;20075;-80
2022/07/18 12:24:37;;;;;;;0.00;0.00;;;;;;;32.06;25.45;102084.97;10443418;28;20515;-79
2022/07/18 12:30:04;;;;;;;0.38;0.30;;;;;;;32.05;24.76;102080.63;10457995;28;20135;-79
2022/07/18 12:35:40;;;;;;;0.00;0.00;;;;;;;32.24;26.71;102084.16;10476177;28;20032;-81
2022/07/18 12:40:47;;;;;;;0.20;0.10;;;;;;;31.83;25.08;102081.59;10428327;28;20067;-79
2022/07/18 12:45:50;;;;;;;0.30;0.30;;;;;;;31.60;27.17;102071.94;10450507;28;20037;-79
2022/07/18 12:50:57;;;;;;;0.20;0.20;;;;;;;31.86;28.03;102067.28;10409472;28;20049;-80
2022/07/18 12:56:00;;;;;;;0.10;0.10;;;;;;;32.21;29.08;102062.97;10439108;28;20064;-79
2022/07/18 13:01:03;;;;;;;0.13;0.10;;;;;;;31.90;27.04;102056.41;10440770;28;20041;-79
2022/07/18 13:06:09;;;;;;;0.22;0.10;;;;;;;31.83;26.29;102052.28;10428317;28;20136;-80
2022/07/18 13:11:11;;;;;;;0.10;0.10;;;;;;;32.08;26.91;102048.47;10461010;28;20528;-80
2022/07/18 13:16:13;;;;;;;0.13;0.13;;;;;;;32.39;25.23;102049.69;10480394;28;20443;-79
2022/07/18 13:21:18;;;;;;;0.20;0.20;;;;;;;31.61;26.81;102042.56;10451993;28;20041;-79
2022/07/18 13:26:25;;;;;;;1.20;0.88;;;;;;;31.61;26.09;102042.56;10436315;28;20045;-80
2022/07/18 13:31:27;;;;;;;1.45;0.20;;;;;;;31.62;26.40;102038.13;10466363;28;20052;-80
2022/07/18 13:36:29;;;;;;;0.08;0.08;;;;;;;32.24;26.32;102038.00;10471391;28;20133;-80
2022/07/18 13:41:31;;;;;;;0.00;0.00;;;;;;;31.46;25.20;102043.28;10443927;28;20139;-80
2022/07/18 13:46:33;;;;;;;0.00;0.00;;;;;;;31.63;25.63;102030.03;10457409;28;20045;-80
2022/07/18 13:51:36;;;;;;;0.00;0.00;;;;;;;32.22;27.27;102027.38;10464357;28;20526;-80
2022/07/18 13:56:38;;;;;;;1.15;0.45;;;;;;;31.78;25.80;102030.31;10445642;28;20036;-79
2022/07/18 14:01:41;;;;;;;0.55;0.30;;;;;;;31.96;26.85;102020.59;10468674;28;20120;-79
2022/07/18 14:06:43;;;;;;;0.50;0.15;;;;;;;32.38;28.11;102016.84;10435599;28;20125;-79
2022/07/18 14:11:45;;;;;;;0.22;0.10;;;;;;;31.88;27.83;102012.97;10423568;28;20381;-79
2022/07/18 14:16:47;;;;;;;0.00;0.00;;;;;;;32.05;27.72;102013.97;10437140;28;20063;-79
2022/07/18 14:21:49;;;;;;;0.20;0.20;;;;;;;31.62;27.44;102006.16;10428810;28;20049;-79
2022/07/18 14:26:53;;;;;;;0.30;0.20;;;;;;;31.78;27.90;102004.56;10428731;28;20045;-81
2022/07/18 14:31:55;;;;;;;0.28;0.28;;;;;;;31.97;27.10;102001.00;10431596;28;20136;-80
2022/07/18 14:36:56;;;;;;;0.05;0.05;;;;;;;32.00;26.49;101995.53;10455246;28;20049;-80
2022/07/18 14:41:58;;;;;;;0.00;0.00;;;;;;;32.07;28.88;101990.75;10467064;28;20051;-77
2022/07/18 14:47:00;;;;;;;0.20;0.05;;;;;;;32.27;28.90;101985.38;10465923;28;20519;-76
2022/07/18 14:52:02;;;;;;;0.00;0.00;;;;;;;32.02;29.12;101979.47;10449919;28;20080;-76
2022/07/18 14:57:05;;;;;;;0.00;0.00;;;;;;;32.06;28.47;101978.38;10430729;28;20029;-77
2022/07/18 15:02:08;;;;;;;0.00;0.00;;;;;;;31.87;27.95;101976.59;10443853;28;20056;-78
2022/07/18 15:07:10;;;;;;;0.10;0.10;;;;;;;31.58;27.30;101977.91;10480669;28;20468;-77
2022/07/18 15:12:12;;;;;;;0.60;0.45;;;;;;;31.55;26.04;101978.94;10480047;28;20044;-77
2022/07/18 15:17:14;;;;;;;0.10;0.10;;;;;;;32.04;25.96;101969.59;10444411;28;20044;-77
2022/07/18 15:22:17;;;;;;;0.20;0.10;;;;;;;31.86;26.36;101966.88;10480930;28;20139;-76
2022/07/18 15:27:18;;;;;;;0.52;0.15;;;;;;;31.84;27.64;101958.09;10474568;28;20507;-77
2022/07/18 15:32:20;;;;;;;0.22;0.10;;;;;;;31.77;26.32;101961.97;10479169;28;20175;-77
2022/07/18 15:37:23;;;;;;;0.10;0.10;;;;;;;32.20;26.53;101954.59;10470200;28;20042;-77
2022/07/18 15:42:24;;;;;;;0.10;0.10;;;;;;;31.71;26.91;101959.59;10466458;28;20035;-77
2022/07/18 15:47:26;;;;;;;0.20;0.15;;;;;;;31.83;27.59;101955.50;10443312;28;20361;-76
2022/07/18 15:52:28;;;;;;;0.00;0.00;;;;;;;31.66;26.58;101949.16;10444032;28;20476;-77
2022/07/18 15:57:29;;;;;;;0.00;0.00;;;;;;;31.80;26.18;101945.84;10438231;28;20048;-76
2022/07/18 16:02:32;;;;;;;0.08;0.08;;;;;;;32.12;26.66;101938.13;10404070;28;20049;-77
2022/07/18 16:07:34;;;;;;;0.05;0.05;;;;;;;32.34;25.98;101927.25;10432430;28;20051;-78
2022/07/18 16:12:37;;;;;;;0.10;0.10;;;;;;;31.67;25.62;101928.72;10442305;28;20508;-76
2022/07/18 16:17:41;;;;;;;1.13;0.20;;;;;;;31.82;28.51;101922.69;10449470;28;20041;-77
2022/07/18 16:22:43;;;;;;;0.25;0.22;;;;;;;31.64;25.34;101919.06;10437818;28;20041;-77
2022/07/18 16:27:45;;;;;;;0.00;0.00;;;;;;;31.63;25.51;101909.34;10452492;28;20041;-77
2022/07/18 16:32:47;;;;;;;0.32;0.28;;;;;;;31.73;26.58;101907.13;10486578;28;20171;-77
2022/07/18 16:37:48;;;;;;;0.10;0.10;;;;;;;32.24;29.28;101902.88;10484163;28;20219;-77
2022/07/18 16:42:50;;;;;;;0.20;0.10;;;;;;;31.92;28.90;101897.28;10453405;28;20053;-78
2022/07/18 16:47:52;;;;;;;0.13;0.10;;;;;;;31.53;25.85;101895.59;10438535;28;20493;-77
2022/07/18 16:53:02;;;;;;;0.20;0.00;;;;;;;31.77;29.15;101887.38;10434782;28;20067;-77
2022/07/18 16:58:11;;;;;;;0.10;0.10;;;;;;;31.75;26.26;101883.94;10450931;28;20436;-77
2022/07/18 17:03:12;;;;;;;0.03;0.03;;;;;;;31.63;30.47;101880.88;10433131;28;20100;-77
2022/07/18 17:08:14;;;;;;;0.73;0.73;;;;;;;31.58;28.26;101876.72;10433228;28;20530;-77
2022/07/18 17:13:16;;;;;;;0.10;0.10;;;;;;;31.75;29.23;101875.97;10436424;28;20052;-77
2022/07/18 17:18:18;;;;;;;0.00;0.00;;;;;;;31.57;28.21;101869.69;10436147;28;20049;-77
2022/07/18 17:23:22;;;;;;;0.03;0.00;;;;;;;31.81;28.71;101873.00;10466282;28;20044;-76
2022/07/18 17:28:26;;;;;;;0.75;0.35;;;;;;;31.50;28.31;101874.44;10448877;28;20041;-75
2022/07/18 17:33:28;;;;;;;0.08;0.08;;;;;;;31.29;28.88;101871.84;10448469;28;20052;-76
2022/07/18 17:38:36;;;;;;;0.05;0.05;;;;;;;31.44;35.92;101872.06;10439067;28;20140;-76
2022/07/18 17:43:40;;;;;;;0.00;0.00;;;;;;;31.42;35.84;101865.94;10463926;28;20049;-76
2022/07/18 17:48:43;;;;;;;0.00;0.00;;;;;;;31.18;42.49;101863.47;10447083;28;20045;-76
2022/07/18 17:53:49;;;;;;;0.13;0.13;;;;;;;31.09;40.48;101863.94;10454371;28;20048;-76
2022/07/18 17:58:58;;;;;;;0.40;0.20;;;;;;;30.90;43.71;101858.53;10432456;28;20056;-76
2022/07/18 18:04:01;;;;;;;0.00;0.00;;;;;;;30.76;45.45;101856.50;10447736;28;20090;-76
2022/07/18 18:09:04;;;;;;;0.22;0.00;;;;;;;30.59;45.88;101850.13;10430744;28;20358;-76
2022/07/18 18:14:05;;;;;;;0.00;0.00;;;;;;;30.30;44.34;101849.56;10446601;28;20049;-76
2022/07/18 18:19:07;;;;;;;0.10;0.10;;;;;;;30.00;43.71;101859.69;10453127;28;20053;-76
2022/07/18 18:24:09;;;;;;;0.05;0.05;;;;;;;29.61;68.01;101855.88;10460069;28;20033;-76
2022/07/18 18:29:10;;;;;;;0.08;0.03;;;;;;;29.50;59.94;101858.09;10444690;28;20136;-76
2022/07/18 18:34:18;;;;;;;0.00;0.00;;;;;;;29.20;64.65;101855.66;10450307;28;20543;-76
2022/07/18 18:39:20;;;;;;;0.10;0.00;;;;;;;29.12;44.82;101864.78;10460446;28;20115;-75
2022/07/18 18:44:23;;;;;;;0.00;0.00;;;;;;;28.60;51.66;101856.88;10441226;28;20488;-75
2022/07/18 18:49:25;;;;;;;0.00;0.00;;;;;;;28.82;39.74;101856.13;10458472;28;20488;-75
2022/07/18 18:54:27;;;;;;;0.10;0.10;;;;;;;28.06;54.71;101852.53;10473365;28;20507;-75
2022/07/18 18:59:28;;;;;;;0.00;0.00;;;;;;;28.03;45.67;101851.69;10466380;28;20070;-75
2022/07/18 19:04:31;;;;;;;0.00;0.00;;;;;;;27.49;54.10;101853.38;10446330;28;20140;-75
2022/07/18 19:09:32;;;;;;;0.00;0.00;;;;;;;27.46;56.56;101849.97;10482478;28;20412;-75
2022/07/18 19:14:34;;;;;;;0.00;0.00;;;;;;;26.79;64.16;101849.16;10481366;28;20044;-75
2022/07/18 19:19:36;;;;;;;0.10;0.10;;;;;;;26.22;71.72;101862.06;10452502;28;20045;-75
2022/07/18 19:24:39;;;;;;;0.00;0.00;;;;;;;25.94;64.99;101865.34;10432548;28;20056;-75
2022/07/18 19:29:41;;;;;;;0.10;0.10;;;;;;;25.53;70.35;101869.75;10450216;28;20052;-75
2022/07/18 19:34:45;;;;;;;0.22;0.20;;;;;;;25.20;59.39;101856.38;10455660;28;20037;-73
2022/07/18 19:39:47;;;;;;;0.25;0.25;;;;;;;24.65;70.24;101859.13;10459573;28;20052;-73
2022/07/18 19:44:49;;;;;;;0.08;0.08;;;;;;;24.50;63.66;101859.41;10434019;28;20029;-73
2022/07/18 19:49:50;;;;;;;0.00;0.00;;;;;;;24.30;70.08;101863.25;10456630;28;20063;-75
2022/07/18 19:54:52;;;;;;;0.20;0.20;;;;;;;23.93;81.93;101869.09;10457199;28;20045;-75
2022/07/18 19:59:54;;;;;;;0.30;0.13;;;;;;;23.54;84.24;101871.34;10456279;28;20056;-75
2022/07/18 20:04:57;;;;;;;0.15;0.08;;;;;;;23.10;69.40;101877.09;10456955;28;20033;-75
2022/07/18 20:09:59;;;;;;;0.10;0.10;;;;;;;23.29;77.09;101876.88;10456705;28;20050;-75
2022/07/18 20:15:04;;;;;;;0.00;0.00;;;;;;;22.65;77.81;101874.88;10460940;28;20033;-75
2022/07/18 20:20:06;;;;;;;0.03;0.03;;;;;;;22.43;85.44;101874.22;10438488;28;20044;-75
2022/07/18 20:25:09;;;;;;;0.20;0.20;;;;;;;22.34;81.02;101879.50;10455880;28;20087;-75
2022/07/18 20:30:22;;;;;;;0.32;0.28;;;;;;;21.98;84.48;101881.50;10435450;28;20063;-74
2022/07/18 20:35:23;;;;;;;0.30;0.30;;;;;;;21.72;84.37;101882.50;10422081;28;20504;-75
2022/07/18 20:40:25;;;;;;;0.30;0.30;;;;;;;21.73;86.98;101879.00;10469673;28;20049;-75
2022/07/18 20:45:29;;;;;;;0.52;0.50;;;;;;;21.68;86.36;101873.78;10444954;28;20132;-75
2022/07/18 20:50:31;;;;;;;0.32;0.30;;;;;;;20.72;100.00;101883.63;10437843;28;20119;-75
2022/07/18 20:56:29;;;;;;;0.15;0.10;;;;;;;20.82;100.00;101889.75;10447253;28;20040;-75
2022/07/18 21:01:32;;;;;;;0.00;0.00;;;;;;;20.54;100.00;101879.28;10452282;28;20037;-74
2022/07/18 21:06:35;;;;;;;0.13;0.10;;;;;;;20.86;100.00;101881.00;10436890;28;20083;-74
2022/07/18 21:11:37;;;;;;;0.10;0.10;;;;;;;20.71;100.00;101879.25;10459003;28;20040;-74
2022/07/18 21:16:38;;;;;;;0.15;0.13;;;;;;;20.61;100.00;101881.88;10466911;28;20047;-74
2022/07/18 21:21:40;;;;;;;0.20;0.20;;;;;;;20.63;100.00;101881.00;10438671;28;20072;-74
2022/07/18 21:26:42;;;;;;;0.30;0.17;;;;;;;20.16;100.00;101883.59;10456846;28;20049;-75
2022/07/18 21:31:47;;;;;;;0.47;0.30;;;;;;;19.75;100.00;101886.94;10450328;28;20073;-74
2022/07/18 21:36:49;;;;;;;0.10;0.10;;;;;;;19.96;100.00;101892.28;10467801;28;20036;-74
2022/07/18 21:41:53;;;;;;;0.65;0.40;;;;;;;19.78;100.00;101900.03;10462001;28;20041;-74
2022/07/18 21:46:55;;;;;;;0.20;0.20;;;;;;;19.81;100.00;101895.66;10449995;28;20041;-74
2022/07/18 21:51:57;;;;;;;0.00;0.00;;;;;;;19.62;100.00;101894.72;10467701;28;20053;-74
2022/07/18 21:56:58;;;;;;;0.13;0.10;;;;;;;19.42;100.00;101893.78;10467118;28;20041;-74
2022/07/18 22:02:01;;;;;;;1.00;0.38;;;;;;;19.70;100.00;101880.81;10456805;28;20044;-74
2022/07/18 22:07:02;;;;;;;0.00;0.00;;;;;;;19.31;100.00;101892.00;10452616;28;20068;-74
2022/07/18 22:12:05;;;;;;;0.00;0.00;;;;;;;19.16;100.00;101895.38;10467430;28;20052;-74
2022/07/18 22:17:07;;;;;;;0.10;0.10;;;;;;;19.02;100.00;101890.06;10473526;28;20389;-74
2022/07/18 22:22:09;;;;;;;0.10;0.10;;;;;;;19.00;100.00;101883.97;10450382;28;20459;-74
2022/07/18 22:27:10;;;;;;;1.42;0.38;;;;;;;19.19;100.00;101873.63;10446908;28;20048;-75
2022/07/18 22:32:12;;;;;;;0.20;0.20;;;;;;;18.94;100.00;101881.34;10464811;28;20041;-74
2022/07/18 22:37:16;;;;;;;0.32;0.30;;;;;;;18.88;100.00;101881.22;10465494;28;20065;-74
2022/07/18 22:42:18;;;;;;;0.03;0.03;;;;;;;18.80;100.00;101882.94;10463672;28;20037;-74
2022/07/18 22:47:20;;;;;;;0.68;0.38;;;;;;;18.94;100.00;101886.56;10464965;28;20033;-74
2022/07/18 22:52:21;;;;;;;0.45;0.30;;;;;;;18.44;100.00;101885.25;10453862;28;20512;-74
2022/07/18 22:57:23;;;;;;;0.65;0.17;;;;;;;18.49;100.00;101887.91;10453257;28;20128;-74
2022/07/18 23:02:25;;;;;;;0.50;0.30;;;;;;;18.55;100.00;101881.00;10460356;28;20120;-75
2022/07/18 23:07:29;;;;;;;0.30;0.30;;;;;;;18.36;100.00;101882.56;10456810;28;20045;-75
2022/07/18 23:12:31;;;;;;;0.20;0.20;;;;;;;18.29;100.00;101879.91;10475301;28;20059;-75